createdAt,value
2022-12-31T00:00:08.131Z,11.64
2022-12-31T00:02:34.792Z,11.62
2022-12-31T00:05:01.317Z,11.62
2022-12-31T00:07:27.891Z,11.62
2022-12-31T00:09:54.307Z,11.59
2022-12-31T00:12:20.705Z,11.61
2022-12-31T00:14:47.930Z,11.60
2022-12-31T00:17:14.445Z,11.61
2022-12-31T00:19:40.929Z,11.61
2022-12-31T00:22:07.343Z,11.61
2022-12-31T00:24:35.802Z,11.61
2022-12-31T00:27:02.352Z,11.63
2022-12-31T00:29:28.791Z,11.65
2022-12-31T00:31:55.272Z,11.66
2022-12-31T00:34:21.744Z,11.69
2022-12-31T00:36:48.339Z,11.71
2022-12-31T00:39:14.853Z,11.70
2022-12-31T00:41:43.244Z,11.73
2022-12-31T00:44:11.967Z,11.73
2022-12-31T00:49:07.382Z,11.68
2022-12-31T00:51:33.992Z,11.67
2022-12-31T00:54:00.961Z,11.65
2022-12-31T00:56:30.242Z,11.65
2022-12-31T00:58:59.079Z,11.63
2022-12-31T01:01:37.368Z,11.63
2022-12-31T01:04:13.264Z,11.61
2022-12-31T01:06:40.291Z,11.59
2022-12-31T01:09:07.785Z,11.57
2022-12-31T01:11:34.553Z,11.56
2022-12-31T01:14:05.816Z,11.54
2022-12-31T01:16:39.475Z,11.49
2022-12-31T01:19:09.283Z,11.48
2022-12-31T01:21:37.782Z,11.47
2022-12-31T01:24:04.676Z,11.47
2022-12-31T01:26:31.255Z,11.45
2022-12-31T01:28:57.944Z,11.43
2022-12-31T01:31:25.444Z,11.40
2022-12-31T01:33:52.411Z,11.38
2022-12-31T01:36:25.570Z,11.38
2022-12-31T01:38:53.228Z,11.34
2022-12-31T01:41:22.519Z,11.33
2022-12-31T01:43:50.760Z,11.32
2022-12-31T01:46:37.575Z,11.32
2022-12-31T01:49:32.035Z,11.28
2022-12-31T01:52:11.421Z,11.26
2022-12-31T01:54:42.143Z,11.26
2022-12-31T01:57:09.966Z,11.26
2022-12-31T01:59:37.234Z,11.23
2022-12-31T02:02:05.261Z,11.21
2022-12-31T02:04:32.029Z,11.19
2022-12-31T02:07:01.601Z,11.18
2022-12-31T02:09:28.666Z,11.17
2022-12-31T02:11:55.204Z,11.16
2022-12-31T02:14:29.116Z,11.14
2022-12-31T02:17:13.051Z,11.13
2022-12-31T02:19:48.628Z,11.16
2022-12-31T02:22:36.445Z,11.14
2022-12-31T02:25:08.844Z,11.12
2022-12-31T02:28:01.282Z,11.09
2022-12-31T02:30:32.167Z,11.06
2022-12-31T02:33:09.453Z,11.06
2022-12-31T02:35:45.817Z,11.03
2022-12-31T02:38:19.396Z,11.01
2022-12-31T02:40:47.113Z,11.00
2022-12-31T02:43:13.699Z,10.99
2022-12-31T02:45:44.971Z,10.98
2022-12-31T02:48:29.632Z,10.97
2022-12-31T02:51:19.082Z,10.95
2022-12-31T02:54:00.466Z,10.94
2022-12-31T02:56:39.109Z,10.94
2022-12-31T02:59:56.130Z,10.91
2022-12-31T03:02:24.613Z,10.90
2022-12-31T03:04:56.473Z,10.89
2022-12-31T03:07:26.492Z,10.87
2022-12-31T03:09:53.555Z,10.88
2022-12-31T03:12:42.020Z,10.87
2022-12-31T03:15:19.873Z,10.85
2022-12-31T03:17:52.248Z,10.80
2022-12-31T03:20:38.387Z,10.79
2022-12-31T03:23:08.250Z,10.78
2022-12-31T03:25:34.864Z,10.76
2022-12-31T03:28:05.471Z,10.75
2022-12-31T03:30:33.274Z,10.73
2022-12-31T03:32:59.928Z,10.72
2022-12-31T03:35:29.399Z,10.70
2022-12-31T03:37:56.663Z,10.69
2022-12-31T03:40:25.383Z,10.68
2022-12-31T03:42:52.350Z,10.66
2022-12-31T03:45:19.128Z,10.66
2022-12-31T03:47:48.870Z,10.66
2022-12-31T03:50:17.160Z,10.64
2022-12-31T03:52:43.709Z,10.62
2022-12-31T03:55:11.295Z,10.61
2022-12-31T03:57:38.504Z,10.59
2022-12-31T04:00:07.563Z,10.58
2022-12-31T04:02:34.093Z,10.55
2022-12-31T04:05:00.689Z,10.54
2022-12-31T04:07:27.099Z,10.50
2022-12-31T04:09:53.491Z,10.48
2022-12-31T04:12:19.900Z,10.47
2022-12-31T04:14:46.345Z,10.48
2022-12-31T04:17:12.791Z,10.45
2022-12-31T04:19:39.250Z,10.45
2022-12-31T04:22:06.192Z,10.44
2022-12-31T04:24:32.623Z,10.43
2022-12-31T04:27:05.341Z,10.41
2022-12-31T04:29:34.225Z,10.39
2022-12-31T04:32:01.091Z,10.38
2022-12-31T04:34:27.573Z,10.36
2022-12-31T04:36:53.982Z,10.35
2022-12-31T04:39:20.620Z,10.33
2022-12-31T04:41:47.157Z,10.34
2022-12-31T04:44:13.624Z,10.33
2022-12-31T04:46:40.166Z,10.33
2022-12-31T04:49:07.701Z,10.33
2022-12-31T04:51:34.393Z,10.31
2022-12-31T04:54:00.866Z,10.32
2022-12-31T04:56:28.234Z,10.31
2022-12-31T04:58:55.439Z,10.31
2022-12-31T05:01:23.050Z,10.31
2022-12-31T05:03:49.572Z,10.30
2022-12-31T05:06:18.983Z,10.31
2022-12-31T05:08:45.741Z,10.31
2022-12-31T05:11:12.584Z,10.31
2022-12-31T05:13:39.239Z,10.32
2022-12-31T05:16:07.004Z,10.33
2022-12-31T05:18:33.972Z,10.33
2022-12-31T05:21:00.695Z,10.33
2022-12-31T05:23:27.421Z,10.34
2022-12-31T05:25:53.923Z,10.37
2022-12-31T05:28:20.360Z,10.38
2022-12-31T05:30:50.949Z,10.42
2022-12-31T05:33:18.781Z,10.45
2022-12-31T05:35:46.068Z,10.49
2022-12-31T05:38:12.503Z,10.52
2022-12-31T05:40:39.087Z,10.57
2022-12-31T05:43:05.497Z,10.60
2022-12-31T05:45:31.929Z,10.64
2022-12-31T05:47:58.486Z,10.71
2022-12-31T05:50:25.046Z,10.74
2022-12-31T05:52:51.571Z,10.78
2022-12-31T05:55:18.021Z,10.81
2022-12-31T05:57:44.405Z,10.87
2022-12-31T06:00:11.970Z,10.91
2022-12-31T06:02:38.565Z,10.94
2022-12-31T06:05:05.598Z,10.95
2022-12-31T06:07:32.302Z,10.96
2022-12-31T06:09:58.962Z,11.00
2022-12-31T06:12:25.471Z,11.04
2022-12-31T06:14:51.886Z,11.06
2022-12-31T06:17:19.064Z,11.05
2022-12-31T06:19:47.203Z,11.05
2022-12-31T06:22:14.004Z,11.07
2022-12-31T06:24:40.476Z,11.09
2022-12-31T06:27:06.918Z,11.10
2022-12-31T06:29:33.575Z,11.12
2022-12-31T06:31:59.934Z,11.14
2022-12-31T06:34:26.387Z,11.14
2022-12-31T06:36:52.864Z,11.18
2022-12-31T06:39:19.346Z,11.21
2022-12-31T06:41:45.765Z,11.24
2022-12-31T06:44:12.246Z,11.27
2022-12-31T06:46:39.368Z,11.31
2022-12-31T06:49:06.009Z,11.35
2022-12-31T06:51:32.548Z,11.41
2022-12-31T06:53:59.032Z,11.46
2022-12-31T06:56:33.820Z,11.55
2022-12-31T06:59:01.902Z,11.59
2022-12-31T07:01:57.401Z,11.69
2022-12-31T07:04:32.800Z,11.72
2022-12-31T07:07:18.039Z,11.77
2022-12-31T07:10:29.019Z,11.86
2022-12-31T07:13:14.332Z,11.89
2022-12-31T07:16:07.191Z,11.97
2022-12-31T07:18:47.826Z,12.02
2022-12-31T07:21:18.570Z,12.04
2022-12-31T07:23:45.465Z,12.12
2022-12-31T07:26:18.023Z,12.21
2022-12-31T07:28:58.716Z,12.25
2022-12-31T07:31:45.882Z,12.36
2022-12-31T07:34:22.347Z,12.42
2022-12-31T07:37:16.001Z,12.49
2022-12-31T07:39:51.516Z,12.51
2022-12-31T07:42:42.481Z,12.56
2022-12-31T07:45:24.447Z,12.58
2022-12-31T07:47:51.032Z,12.57
2022-12-31T07:50:19.129Z,12.55
2022-12-31T07:52:46.321Z,12.54
2022-12-31T07:55:13.064Z,12.54
2022-12-31T07:58:03.245Z,12.62
2022-12-31T08:00:31.132Z,12.64
2022-12-31T08:03:18.545Z,12.65
2022-12-31T08:06:06.062Z,12.66
2022-12-31T08:08:43.017Z,12.70
2022-12-31T08:11:39.119Z,12.74
2022-12-31T08:14:10.111Z,12.75
2022-12-31T08:16:37.927Z,12.74
2022-12-31T08:19:04.823Z,12.75
2022-12-31T08:21:48.722Z,12.75
2022-12-31T08:24:35.796Z,12.75
2022-12-31T08:27:08.461Z,12.75
2022-12-31T08:29:43.514Z,12.72
2022-12-31T08:32:16.996Z,12.69
2022-12-31T08:34:58.496Z,12.67
2022-12-31T08:37:36.900Z,12.65
2022-12-31T08:40:40.374Z,12.64
2022-12-31T08:43:37.736Z,12.65
2022-12-31T08:46:14.920Z,12.63
2022-12-31T08:48:46.237Z,12.60
2022-12-31T08:51:20.652Z,12.59
2022-12-31T08:53:50.365Z,12.58
2022-12-31T08:56:34.400Z,12.55
2022-12-31T08:59:26.822Z,12.52
2022-12-31T09:01:56.295Z,12.51
2022-12-31T09:04:39.370Z,12.52
2022-12-31T09:07:09.444Z,12.50
2022-12-31T09:09:38.679Z,12.50
2022-12-31T09:12:11.656Z,12.52
2022-12-31T09:14:48.217Z,12.50
2022-12-31T09:17:47.362Z,12.50
2022-12-31T09:20:42.845Z,12.53
2022-12-31T09:23:10.916Z,12.60
2022-12-31T09:25:46.927Z,12.63
2022-12-31T09:28:16.042Z,12.66
2022-12-31T09:31:09.263Z,12.72
2022-12-31T09:33:41.489Z,12.75
2022-12-31T09:36:16.100Z,12.77
2022-12-31T09:38:52.346Z,12.81
2022-12-31T09:41:37.674Z,12.85
2022-12-31T09:44:10.050Z,12.88
2022-12-31T09:47:01.176Z,12.91
2022-12-31T09:49:42.762Z,12.95
2022-12-31T09:52:25.385Z,13.02
2022-12-31T09:55:01.030Z,13.01
2022-12-31T09:57:49.249Z,13.05
2022-12-31T10:00:22.389Z,13.07
2022-12-31T10:03:10.507Z,13.11
2022-12-31T10:06:06.336Z,13.12
2022-12-31T10:08:56.789Z,13.20
2022-12-31T10:11:31.034Z,13.26
2022-12-31T10:14:26.931Z,13.32
2022-12-31T10:17:33.535Z,13.40
2022-12-31T10:20:02.905Z,13.44
2022-12-31T10:22:38.353Z,13.52
2022-12-31T10:25:19.842Z,13.62
2022-12-31T10:28:06.907Z,13.67
2022-12-31T10:30:35.759Z,13.72
2022-12-31T10:33:37.557Z,13.74
2022-12-31T10:36:09.360Z,13.79
2022-12-31T10:38:51.796Z,13.80
2022-12-31T10:41:46.340Z,13.81
2022-12-31T10:44:43.772Z,13.80
2022-12-31T10:47:58.849Z,13.81
2022-12-31T10:50:34.299Z,13.79
2022-12-31T10:53:09.731Z,13.79
2022-12-31T10:55:56.592Z,13.80
2022-12-31T10:58:59.092Z,13.79
2022-12-31T11:01:42.155Z,13.82
2022-12-31T11:04:42.407Z,13.83
2022-12-31T11:07:30.249Z,13.83
2022-12-31T11:10:44.855Z,13.83
2022-12-31T11:13:17.401Z,13.87
2022-12-31T11:15:56.062Z,13.90
2022-12-31T11:18:22.652Z,13.91
2022-12-31T11:21:07.831Z,13.91
2022-12-31T11:24:03.884Z,13.87
2022-12-31T11:26:55.206Z,13.83
2022-12-31T11:30:02.055Z,13.79
2022-12-31T11:32:44.568Z,13.76
2022-12-31T11:35:32.531Z,13.77
2022-12-31T11:38:14.977Z,13.77
2022-12-31T11:40:57.043Z,13.76
2022-12-31T11:43:26.510Z,13.77
2022-12-31T11:45:58.960Z,13.77
2022-12-31T11:48:40.427Z,13.83
2022-12-31T11:51:27.593Z,13.88
2022-12-31T11:54:12.092Z,13.92
2022-12-31T11:56:41.188Z,13.99
2022-12-31T11:59:19.224Z,14.04
2022-12-31T12:01:51.803Z,14.11
2022-12-31T12:04:18.474Z,14.13
2022-12-31T12:06:46.032Z,14.19
2022-12-31T12:09:17.177Z,14.19
2022-12-31T12:11:43.582Z,14.20
2022-12-31T12:14:37.345Z,14.20
2022-12-31T12:17:08.179Z,14.19
2022-12-31T12:19:42.767Z,14.18
2022-12-31T12:22:19.770Z,14.14
2022-12-31T12:24:54.021Z,14.13
2022-12-31T12:27:23.206Z,14.11
2022-12-31T12:29:49.735Z,14.13
2022-12-31T12:32:21.827Z,14.15
2022-12-31T12:34:50.071Z,14.16
2022-12-31T12:37:33.090Z,14.17
2022-12-31T12:40:18.422Z,14.15
2022-12-31T12:42:49.068Z,14.13
2022-12-31T12:45:51.189Z,14.16
2022-12-31T12:48:39.257Z,14.13
2022-12-31T12:51:50.661Z,14.12
2022-12-31T12:54:25.433Z,14.15
2022-12-31T12:57:20.636Z,14.13
2022-12-31T12:59:58.970Z,14.11
2022-12-31T13:02:37.673Z,14.14
2022-12-31T13:05:16.018Z,14.18
2022-12-31T13:08:09.742Z,14.16
2022-12-31T13:10:48.213Z,14.18
2022-12-31T13:13:50.938Z,14.18
2022-12-31T13:16:40.282Z,14.18
2022-12-31T13:19:06.693Z,14.16
2022-12-31T13:21:46.018Z,14.13
2022-12-31T13:24:47.807Z,14.09
2022-12-31T13:27:28.625Z,14.06
2022-12-31T13:29:58.957Z,14.06
2022-12-31T13:32:51.070Z,14.02
2022-12-31T13:35:31.190Z,13.96
2022-12-31T13:38:12.550Z,13.94
2022-12-31T13:40:52.540Z,13.94
2022-12-31T13:43:34.280Z,13.93
2022-12-31T13:46:07.748Z,13.92
2022-12-31T13:48:48.381Z,13.88
2022-12-31T13:51:22.976Z,13.85
2022-12-31T13:53:59.853Z,13.86
2022-12-31T13:56:33.442Z,13.86
2022-12-31T13:59:26.471Z,13.87
2022-12-31T14:02:01.807Z,13.82
2022-12-31T14:04:36.078Z,13.85
2022-12-31T14:07:14.082Z,13.83
2022-12-31T14:09:40.584Z,13.85
2022-12-31T14:12:19.680Z,13.89
2022-12-31T14:14:49.045Z,13.88
2022-12-31T14:17:49.603Z,13.90
2022-12-31T14:20:33.244Z,13.86
2022-12-31T14:23:17.923Z,13.86
2022-12-31T14:25:59.571Z,13.89
2022-12-31T14:28:33.854Z,13.93
2022-12-31T14:31:30.014Z,13.96
2022-12-31T14:33:59.345Z,13.94
2022-12-31T14:36:53.699Z,13.84
2022-12-31T14:39:38.814Z,13.77
2022-12-31T14:42:29.441Z,13.77
2022-12-31T14:45:04.230Z,13.75
2022-12-31T14:47:45.916Z,13.73
2022-12-31T14:50:25.063Z,13.70
2022-12-31T14:53:03.640Z,13.71
2022-12-31T14:55:34.476Z,13.73
2022-12-31T15:01:08.710Z,13.72
2022-12-31T15:03:46.115Z,13.75
2022-12-31T15:06:49.873Z,13.70
2022-12-31T15:09:40.913Z,13.75
2022-12-31T15:12:22.025Z,13.70
2022-12-31T15:15:16.471Z,13.66
2022-12-31T15:17:58.167Z,13.61
2022-12-31T15:21:07.738Z,13.57
2022-12-31T15:23:39.484Z,13.57
2022-12-31T15:26:06.906Z,13.60
2022-12-31T15:28:36.490Z,13.57
2022-12-31T15:31:19.904Z,13.59
2022-12-31T15:33:58.308Z,13.62
2022-12-31T15:36:28.174Z,13.65
2022-12-31T15:39:40.971Z,13.69
2022-12-31T15:42:43.412Z,13.77
2022-12-31T15:45:20.985Z,13.83
2022-12-31T15:47:53.232Z,13.85
2022-12-31T15:50:22.461Z,13.91
2022-12-31T15:52:54.504Z,13.97
2022-12-31T15:55:41.582Z,13.98
2022-12-31T15:58:18.436Z,14.03
2022-12-31T16:01:14.691Z,14.08
2022-12-31T16:03:47.991Z,14.03
2022-12-31T16:06:16.356Z,14.08
2022-12-31T16:08:48.627Z,14.10
2022-12-31T16:11:15.937Z,14.09
2022-12-31T16:13:45.730Z,14.10
2022-12-31T16:16:31.588Z,14.19
2022-12-31T16:18:58.717Z,14.15
2022-12-31T16:21:28.091Z,14.11
2022-12-31T16:23:57.679Z,14.11
2022-12-31T16:26:31.683Z,14.13
2022-12-31T16:29:00.179Z,14.12
2022-12-31T16:31:29.586Z,14.05
2022-12-31T16:34:26.026Z,14.07
2022-12-31T16:37:13.566Z,14.11
2022-12-31T16:40:07.973Z,14.10
2022-12-31T16:42:44.234Z,14.11
2022-12-31T16:45:39.183Z,14.11
2022-12-31T16:48:19.822Z,14.13
2022-12-31T16:50:53.094Z,14.13
2022-12-31T16:53:22.391Z,14.16
2022-12-31T16:56:08.546Z,14.25
2022-12-31T16:58:39.939Z,14.21
2022-12-31T17:01:19.106Z,14.16
2022-12-31T17:03:51.223Z,14.12
2022-12-31T17:06:20.027Z,14.12
2022-12-31T17:09:07.120Z,14.10
2022-12-31T17:11:43.538Z,14.08
2022-12-31T17:14:15.668Z,14.00
2022-12-31T17:17:03.117Z,14.04
2022-12-31T17:19:36.074Z,14.08
2022-12-31T17:22:04.785Z,14.05
2022-12-31T17:24:31.619Z,14.03
2022-12-31T17:27:05.049Z,14.04
2022-12-31T17:29:32.230Z,14.05
2022-12-31T17:32:00.035Z,14.05
2022-12-31T17:34:32.399Z,14.05
2022-12-31T17:37:02.499Z,14.07
2022-12-31T17:39:47.106Z,14.01
2022-12-31T17:42:22.749Z,13.97
2022-12-31T17:44:49.224Z,13.97
2022-12-31T17:47:15.706Z,13.98
2022-12-31T17:49:45.862Z,14.01
2022-12-31T17:52:14.475Z,14.02
2022-12-31T17:54:41.698Z,14.01
2022-12-31T17:57:22.960Z,14.05
2022-12-31T17:59:49.429Z,14.09
2022-12-31T18:02:16.013Z,14.07
2022-12-31T18:04:42.521Z,14.05
2022-12-31T18:07:08.957Z,14.03
2022-12-31T18:09:35.463Z,14.04
2022-12-31T18:12:05.665Z,14.05
2022-12-31T18:14:32.050Z,14.04
2022-12-31T18:16:58.559Z,14.02
2022-12-31T18:19:54.199Z,14.05
2022-12-31T18:22:16.165Z,14.06
2022-12-31T18:24:44.039Z,14.05
2022-12-31T18:27:16.056Z,14.00
2022-12-31T18:29:42.530Z,14.02
2022-12-31T18:32:22.828Z,14.08
2022-12-31T18:34:49.696Z,14.09
2022-12-31T18:37:21.679Z,14.09
2022-12-31T18:39:48.784Z,14.07
2022-12-31T18:42:18.276Z,14.11
2022-12-31T18:44:45.362Z,14.10
2022-12-31T18:47:13.763Z,14.15
2022-12-31T18:49:41.206Z,14.23
2022-12-31T18:52:14.383Z,14.19
2022-12-31T18:54:41.338Z,14.19
2022-12-31T18:57:10.946Z,14.21
2022-12-31T18:59:37.424Z,14.19
2022-12-31T19:02:04.325Z,14.23
2022-12-31T19:04:30.945Z,14.24
2022-12-31T19:06:57.360Z,14.22
2022-12-31T19:09:44.617Z,14.18
2022-12-31T19:12:12.797Z,14.17
2022-12-31T19:14:39.261Z,14.16
2022-12-31T19:19:34.726Z,14.18
2022-12-31T19:22:01.467Z,14.20
2022-12-31T19:24:28.174Z,14.24
2022-12-31T19:26:55.296Z,14.24
2022-12-31T19:29:28.410Z,14.27
2022-12-31T19:31:54.999Z,14.28
2022-12-31T19:34:21.781Z,14.23
2022-12-31T19:36:48.282Z,14.22
2022-12-31T19:39:17.452Z,14.18
2022-12-31T19:41:44.560Z,14.14
2022-12-31T19:44:16.354Z,14.08
2022-12-31T19:46:43.186Z,14.09
2022-12-31T19:49:13.626Z,14.11
2022-12-31T19:51:40.683Z,14.10
2022-12-31T19:54:07.624Z,14.04
2022-12-31T19:56:34.116Z,14.11
2022-12-31T19:59:08.475Z,14.13
2022-12-31T20:01:35.060Z,14.11
2022-12-31T20:04:01.740Z,14.09
2022-12-31T20:06:29.391Z,14.11
2022-12-31T20:08:55.872Z,14.15
2022-12-31T20:11:24.024Z,14.19
2022-12-31T20:13:52.743Z,14.12
2022-12-31T20:16:21.733Z,14.15
2022-12-31T20:18:48.736Z,14.16
2022-12-31T20:21:18.648Z,14.21
2022-12-31T20:23:45.612Z,14.24
2022-12-31T20:26:12.469Z,14.27
2022-12-31T20:28:39.228Z,14.27
2022-12-31T20:31:11.652Z,14.20
2022-12-31T20:33:38.173Z,14.19
2022-12-31T20:36:06.377Z,14.22
2022-12-31T20:38:32.864Z,14.19
2022-12-31T20:41:04.253Z,14.26
2022-12-31T20:43:32.811Z,14.36
2022-12-31T20:45:59.467Z,14.35
2022-12-31T20:48:25.890Z,14.31
2022-12-31T20:50:56.707Z,14.28
2022-12-31T20:53:23.070Z,14.25
2022-12-31T20:55:49.631Z,14.27
2022-12-31T20:58:16.422Z,14.37
2022-12-31T21:00:50.947Z,14.38
2022-12-31T21:04:02.232Z,14.37
2022-12-31T21:06:07.169Z,14.35
2022-12-31T21:08:35.206Z,14.32
2022-12-31T21:11:02.572Z,14.41
2022-12-31T21:13:29.034Z,14.41
2022-12-31T21:15:55.884Z,14.39
2022-12-31T21:18:22.966Z,14.40
2022-12-31T21:20:51.694Z,14.47
2022-12-31T21:23:19.885Z,14.45
2022-12-31T21:25:49.834Z,14.49
2022-12-31T21:28:16.270Z,14.53
2022-12-31T21:30:42.751Z,14.56
2022-12-31T21:33:09.287Z,14.57
2022-12-31T21:35:48.701Z,14.55
2022-12-31T21:38:20.391Z,14.57
2022-12-31T21:40:47.731Z,14.54
2022-12-31T21:43:14.799Z,14.52
2022-12-31T21:45:41.971Z,14.55
2022-12-31T21:48:20.255Z,14.54
2022-12-31T21:50:48.587Z,14.48
2022-12-31T21:53:21.790Z,14.45
2022-12-31T21:56:08.943Z,14.44
2022-12-31T21:58:40.480Z,14.43
2022-12-31T22:01:28.521Z,14.41
2022-12-31T22:03:55.061Z,14.47
2022-12-31T22:06:23.750Z,14.54
2022-12-31T22:08:55.382Z,14.57
2022-12-31T22:11:24.171Z,14.60
2022-12-31T22:13:51.614Z,14.62
2022-12-31T22:16:20.171Z,14.57
2022-12-31T22:18:47.437Z,14.58
2022-12-31T22:21:20.616Z,14.58
2022-12-31T22:23:49.895Z,14.56
2022-12-31T22:26:18.827Z,14.57
2022-12-31T22:28:46.065Z,14.57
2022-12-31T22:31:14.252Z,14.60
2022-12-31T22:33:41.133Z,14.54
2022-12-31T22:36:11.608Z,14.53
2022-12-31T22:38:38.162Z,14.57
2022-12-31T22:41:11.130Z,14.55
2022-12-31T22:43:41.682Z,14.55
2022-12-31T22:46:10.441Z,14.55
2022-12-31T22:48:37.833Z,14.56
2022-12-31T22:51:04.713Z,14.57
2022-12-31T22:53:31.203Z,14.56
2022-12-31T22:55:58.357Z,14.62
2022-12-31T22:58:25.880Z,14.61
2022-12-31T23:00:53.261Z,14.60
2022-12-31T23:03:19.779Z,14.57
2022-12-31T23:05:51.461Z,14.61
2022-12-31T23:08:23.273Z,14.62
2022-12-31T23:11:05.482Z,14.58
2022-12-31T23:14:02.369Z,14.58
2022-12-31T23:16:48.607Z,14.57
2022-12-31T23:19:34.959Z,14.58
2022-12-31T23:22:22.971Z,14.52
2022-12-31T23:24:49.387Z,14.50
2022-12-31T23:27:15.850Z,14.59
2022-12-31T23:29:47.041Z,14.62
2022-12-31T23:32:18.337Z,14.60
2022-12-31T23:34:46.140Z,14.61
2022-12-31T23:37:14.103Z,14.68
2022-12-31T23:39:43.680Z,14.69
2022-12-31T23:42:10.483Z,14.64
2022-12-31T23:44:36.892Z,14.59
2022-12-31T23:47:03.400Z,14.58
2022-12-31T23:49:30.147Z,14.57
2022-12-31T23:51:56.607Z,14.68
2022-12-31T23:54:23.169Z,14.70
2022-12-31T23:56:49.559Z,14.74
2022-12-31T23:59:16.228Z,14.74
